createdAt,value
2022-09-04T00:02:09.590Z,1.50
2022-09-04T00:04:43.738Z,1.53
2022-09-04T00:07:46.916Z,1.27
2022-09-04T00:10:29.889Z,1.40
2022-09-04T00:12:59.156Z,1.73
2022-09-04T00:15:36.289Z,1.40
2022-09-04T00:18:19.777Z,1.70
2022-09-04T00:20:51.160Z,1.67
2022-09-04T00:23:26.801Z,1.53
2022-09-04T00:26:02.289Z,1.30
2022-09-04T00:28:43.355Z,1.43
2022-09-04T00:31:18.240Z,1.70
2022-09-04T00:34:14.214Z,1.60
2022-09-04T00:36:49.481Z,1.60
2022-09-04T00:39:20.372Z,1.40
2022-09-04T00:42:03.054Z,1.40
2022-09-04T00:44:32.529Z,1.40
2022-09-04T00:47:24.240Z,1.53
2022-09-04T00:50:06.893Z,1.87
2022-09-04T00:53:00.724Z,1.50
2022-09-04T00:55:42.412Z,1.30
2022-09-04T00:58:21.553Z,1.40
2022-09-04T01:00:48.165Z,1.40
2022-09-04T01:03:49.442Z,1.23
2022-09-04T01:06:29.566Z,1.00
2022-09-04T01:09:24.882Z,1.20
2022-09-04T01:12:06.383Z,1.50
2022-09-04T01:14:48.624Z,1.33
2022-09-04T01:17:34.734Z,1.40
2022-09-04T01:20:20.319Z,1.50
2022-09-04T01:23:02.509Z,1.40
2022-09-04T01:25:52.052Z,1.97
2022-09-04T01:28:35.186Z,1.30
2022-09-04T01:31:08.820Z,1.60
2022-09-04T01:33:54.765Z,1.30
2022-09-04T01:36:37.224Z,1.40
2022-09-04T01:39:04.220Z,1.60
2022-09-04T01:41:57.005Z,1.40
2022-09-04T01:44:23.596Z,1.40
2022-09-04T01:47:08.456Z,1.60
2022-09-04T01:50:04.164Z,1.13
2022-09-04T01:52:36.493Z,1.50
2022-09-04T01:55:12.352Z,1.50
2022-09-04T01:57:57.366Z,1.20
2022-09-04T02:00:25.658Z,1.30
2022-09-04T02:03:17.966Z,1.40
2022-09-04T02:06:13.097Z,1.27
2022-09-04T02:08:39.549Z,1.63
2022-09-04T02:11:15.317Z,1.10
2022-09-04T02:14:04.379Z,1.37
2022-09-04T02:17:04.476Z,1.37
2022-09-04T02:19:33.854Z,1.40
2022-09-04T02:22:25.408Z,1.30
2022-09-04T02:25:01.106Z,1.43
2022-09-04T02:27:27.560Z,1.50
2022-09-04T02:30:08.243Z,1.30
2022-09-04T02:32:40.652Z,1.40
2022-09-04T02:35:13.761Z,1.33
2022-09-04T02:37:50.465Z,1.40
2022-09-04T02:40:52.233Z,1.30
2022-09-04T02:43:21.796Z,1.30
2022-09-04T02:46:06.865Z,1.53
2022-09-04T02:49:07.780Z,1.50
2022-09-04T02:52:02.048Z,1.47
2022-09-04T02:55:04.283Z,1.30
2022-09-04T02:58:01.888Z,1.30
2022-09-04T03:00:40.965Z,1.40
2022-09-04T03:03:18.862Z,1.30
2022-09-04T03:05:59.458Z,1.40
2022-09-04T03:08:36.305Z,1.20
2022-09-04T03:11:06.610Z,1.23
2022-09-04T03:13:46.317Z,1.40
2022-09-04T03:16:21.654Z,1.60
2022-09-04T03:18:53.690Z,1.40
2022-09-04T03:21:32.133Z,1.30
2022-09-04T03:24:03.233Z,1.30
2022-09-04T03:26:42.444Z,1.23
2022-09-04T03:29:15.123Z,1.33
2022-09-04T03:31:51.615Z,1.23
2022-09-04T03:34:42.042Z,1.50
2022-09-04T03:37:25.290Z,1.47
2022-09-04T03:40:11.580Z,1.50
2022-09-04T03:42:56.378Z,1.20
2022-09-04T03:45:22.829Z,1.50
2022-09-04T03:48:12.598Z,1.40
2022-09-04T03:50:58.296Z,1.30
2022-09-04T03:53:50.790Z,1.73
2022-09-04T03:56:29.353Z,1.53
2022-09-04T03:59:11.302Z,1.20
2022-09-04T04:01:43.872Z,1.43
2022-09-04T04:04:22.464Z,1.53
2022-09-04T04:06:53.999Z,1.57
2022-09-04T04:09:41.669Z,1.50
2022-09-04T04:12:39.300Z,1.50
2022-09-04T04:15:08.769Z,1.50
2022-09-04T04:17:56.725Z,1.50
2022-09-04T04:20:43.039Z,1.50
2022-09-04T04:23:34.902Z,1.77
2022-09-04T04:26:21.587Z,1.43
2022-09-04T04:29:14.197Z,1.80
2022-09-04T04:32:13.486Z,1.60
2022-09-04T04:35:48.284Z,1.40
2022-09-04T04:38:18.574Z,1.60
2022-09-04T04:40:51.709Z,1.60
2022-09-04T04:43:30.459Z,1.50
2022-09-04T04:46:15.671Z,1.40
2022-09-04T04:49:07.446Z,1.40
2022-09-04T04:51:46.019Z,1.50
2022-09-04T04:54:46.184Z,1.50
2022-09-04T04:57:21.624Z,1.63
2022-09-04T05:00:07.579Z,1.50
2022-09-04T05:02:53.171Z,1.50
2022-09-04T05:05:57.374Z,1.50
2022-09-04T05:08:29.483Z,1.57
2022-09-04T05:11:01.033Z,1.30
2022-09-04T05:13:40.212Z,1.50
2022-09-04T05:16:16.545Z,1.20
2022-09-04T05:19:16.777Z,1.67
2022-09-04T05:21:50.734Z,1.60
2022-09-04T05:24:34.223Z,1.60
2022-09-04T05:27:12.866Z,1.40
2022-09-04T05:30:04.669Z,1.40
2022-09-04T05:33:16.801Z,1.40
2022-09-04T05:35:55.764Z,1.40
2022-09-04T05:38:31.053Z,1.40
2022-09-04T05:41:32.316Z,1.63
2022-09-04T05:44:31.240Z,1.40
2022-09-04T05:47:15.387Z,1.60
2022-09-04T05:50:04.060Z,1.70
2022-09-04T05:52:48.816Z,1.53
2022-09-04T05:55:21.517Z,1.60
2022-09-04T05:58:12.038Z,1.57
2022-09-04T06:00:46.076Z,1.53
2022-09-04T06:03:38.569Z,1.40
2022-09-04T06:06:23.375Z,1.60
2022-09-04T06:09:02.336Z,1.60
2022-09-04T06:11:51.439Z,1.40
2022-09-04T06:14:35.893Z,1.43
2022-09-04T06:17:27.144Z,1.60
2022-09-04T06:20:25.412Z,1.60
2022-09-04T06:23:07.085Z,1.70
2022-09-04T06:26:01.490Z,1.80
2022-09-04T06:28:40.549Z,1.60
2022-09-04T06:31:16.221Z,1.50
2022-09-04T06:33:48.892Z,1.50
2022-09-04T06:36:33.006Z,1.50
2022-09-04T06:39:12.977Z,1.67
2022-09-04T06:42:08.689Z,1.50
2022-09-04T06:44:54.218Z,1.53
2022-09-04T06:47:47.324Z,1.43
2022-09-04T06:50:22.902Z,1.53
2022-09-04T06:53:08.303Z,1.70
2022-09-04T06:55:51.472Z,1.70
2022-09-04T06:58:45.932Z,1.50
2022-09-04T07:01:46.843Z,1.60
2022-09-04T07:04:19.154Z,1.90
2022-09-04T07:06:52.066Z,1.50
2022-09-04T07:09:40.502Z,1.57
2022-09-04T07:12:33.590Z,1.43
2022-09-04T07:15:27.289Z,1.97
2022-09-04T07:18:06.647Z,1.47
2022-09-04T07:20:41.365Z,1.40
2022-09-04T07:23:07.838Z,1.60
2022-09-04T07:25:44.444Z,1.70
2022-09-04T07:28:27.394Z,1.90
2022-09-04T07:31:03.746Z,1.90
2022-09-04T07:33:52.188Z,1.83
2022-09-04T07:36:34.751Z,2.03
2022-09-04T07:39:19.859Z,1.87
2022-09-04T07:41:51.728Z,1.90
2022-09-04T07:45:12.769Z,2.03
2022-09-04T07:48:08.561Z,1.93
2022-09-04T07:50:40.191Z,1.73
2022-09-04T07:53:26.409Z,2.10
2022-09-04T07:56:01.161Z,1.90
2022-09-04T07:58:44.944Z,2.30
2022-09-04T08:01:39.691Z,1.97
2022-09-04T08:04:33.189Z,2.13
2022-09-04T08:07:01.937Z,1.87
2022-09-04T08:09:38.794Z,2.17
2022-09-04T08:12:14.988Z,2.20
2022-09-04T08:14:52.948Z,2.13
2022-09-04T08:17:33.265Z,1.97
2022-09-04T08:20:19.020Z,1.73
2022-09-04T08:22:54.596Z,2.27
2022-09-04T08:26:03.321Z,2.27
2022-09-04T08:28:46.381Z,1.90
2022-09-04T08:31:24.385Z,2.20
2022-09-04T08:34:17.163Z,2.30
2022-09-04T08:37:01.932Z,2.03
2022-09-04T08:39:54.267Z,2.37
2022-09-04T08:42:51.847Z,2.30
2022-09-04T08:45:42.191Z,2.10
2022-09-04T08:48:25.713Z,2.10
2022-09-04T08:51:14.260Z,2.03
2022-09-04T08:54:03.771Z,2.00
2022-09-04T08:56:49.595Z,2.03
2022-09-04T09:00:00.776Z,2.30
2022-09-04T09:02:52.096Z,2.00
2022-09-04T09:05:55.772Z,2.23
2022-09-04T09:09:07.289Z,2.30
2022-09-04T09:11:52.624Z,2.07
2022-09-04T09:14:50.181Z,2.40
2022-09-04T09:17:34.421Z,2.10
2022-09-04T09:20:10.481Z,2.07
2022-09-04T09:23:17.876Z,2.40
2022-09-04T09:25:56.156Z,2.10
2022-09-04T09:28:50.232Z,2.20
2022-09-04T09:31:28.885Z,2.00
2022-09-04T09:34:25.657Z,1.90
2022-09-04T09:37:02.640Z,2.07
2022-09-04T09:39:35.690Z,2.03
2022-09-04T09:42:38.456Z,2.10
2022-09-04T09:45:25.904Z,2.50
2022-09-04T09:48:14.767Z,2.30
2022-09-04T09:50:53.343Z,2.50
2022-09-04T09:53:46.865Z,2.60
2022-09-04T09:56:38.684Z,2.73
2022-09-04T09:59:25.748Z,2.57
2022-09-04T10:02:19.600Z,2.60
2022-09-04T10:05:23.797Z,2.30
2022-09-04T10:08:10.553Z,2.33
2022-09-04T10:10:49.198Z,2.57
2022-09-04T10:13:56.585Z,2.43
2022-09-04T10:16:42.827Z,2.40
2022-09-04T10:19:39.291Z,2.50
2022-09-04T10:22:21.300Z,2.63
2022-09-04T10:24:47.728Z,2.60
2022-09-04T10:27:29.174Z,2.00
2022-09-04T10:30:04.365Z,2.07
2022-09-04T10:32:44.524Z,2.20
2022-09-04T10:35:31.158Z,2.30
2022-09-04T10:38:09.211Z,2.40
2022-09-04T10:40:51.282Z,2.40
2022-09-04T10:43:47.614Z,2.17
2022-09-04T10:46:22.892Z,2.37
2022-09-04T10:48:58.977Z,2.40
2022-09-04T10:52:05.514Z,2.20
2022-09-04T10:54:44.953Z,2.27
2022-09-04T10:57:52.421Z,2.50
2022-09-04T11:00:20.521Z,2.50
2022-09-04T11:03:21.032Z,2.13
2022-09-04T11:06:15.852Z,2.23
2022-09-04T11:09:03.817Z,2.30
2022-09-04T11:12:04.607Z,2.20
2022-09-04T11:14:49.858Z,2.50
2022-09-04T11:17:50.759Z,2.63
2022-09-04T11:20:39.622Z,2.50
2022-09-04T11:23:08.985Z,2.40
2022-09-04T11:26:00.734Z,2.00
2022-09-04T11:28:52.355Z,2.50
2022-09-04T11:31:48.412Z,2.20
2022-09-04T11:34:42.565Z,2.50
2022-09-04T11:37:21.953Z,2.27
2022-09-04T11:40:18.887Z,2.70
2022-09-04T11:42:50.265Z,2.67
2022-09-04T11:45:48.744Z,2.30
2022-09-04T11:48:37.868Z,2.37
2022-09-04T11:51:23.075Z,2.37
2022-09-04T11:54:08.332Z,2.20
2022-09-04T11:56:39.364Z,2.57
2022-09-04T11:59:41.396Z,2.40
2022-09-04T12:02:26.196Z,1.97
2022-09-04T12:05:39.203Z,2.50
2022-09-04T12:08:35.880Z,2.30
2022-09-04T12:11:41.574Z,2.50
2022-09-04T12:14:35.941Z,2.30
2022-09-04T12:17:15.389Z,2.20
2022-09-04T12:20:07.853Z,2.30
2022-09-04T12:22:42.204Z,2.30
2022-09-04T12:25:44.723Z,2.30
2022-09-04T12:28:30.203Z,2.50
2022-09-04T12:31:12.012Z,2.40
2022-09-04T12:34:03.511Z,2.50
2022-09-04T12:37:00.170Z,2.40
2022-09-04T12:39:51.474Z,2.40
2022-09-04T12:42:36.150Z,2.50
2022-09-04T12:45:21.485Z,2.50
2022-09-04T12:48:03.315Z,3.03
2022-09-04T12:50:33.769Z,2.70
2022-09-04T12:53:09.258Z,2.50
2022-09-04T12:55:49.225Z,2.53
2022-09-04T12:58:50.354Z,2.50
2022-09-04T13:01:32.398Z,2.90
2022-09-04T13:04:20.376Z,2.60
2022-09-04T13:07:15.754Z,2.90
2022-09-04T13:10:03.969Z,2.53
2022-09-04T13:13:00.926Z,2.57
2022-09-04T13:15:42.157Z,2.67
2022-09-04T13:18:14.463Z,2.50
2022-09-04T13:21:19.694Z,2.87
2022-09-04T13:23:52.196Z,2.53
2022-09-04T13:26:31.485Z,2.70
2022-09-04T13:29:19.432Z,2.87
2022-09-04T13:32:11.382Z,2.40
2022-09-04T13:34:47.938Z,2.57
2022-09-04T13:37:14.423Z,2.63
2022-09-04T13:39:47.247Z,3.00
2022-09-04T13:42:30.357Z,2.80
2022-09-04T13:45:12.143Z,3.00
2022-09-04T13:47:44.326Z,3.27
2022-09-04T13:50:35.847Z,2.20
2022-09-04T13:53:17.228Z,2.73
2022-09-04T13:55:59.396Z,2.73
2022-09-04T13:58:39.593Z,2.57
2022-09-04T14:01:13.597Z,2.53
2022-09-04T14:03:49.893Z,2.67
2022-09-04T14:06:18.578Z,2.40
2022-09-04T14:08:55.607Z,3.17
2022-09-04T14:11:54.257Z,2.60
2022-09-04T14:14:35.155Z,3.50
2022-09-04T14:17:01.675Z,2.83
2022-09-04T14:19:42.601Z,2.90
2022-09-04T14:22:16.432Z,3.00
2022-09-04T14:28:05.599Z,2.80
2022-09-04T14:30:29.447Z,2.60
2022-09-04T14:30:38.168Z,2.83
2022-09-04T14:33:54.650Z,3.07
2022-09-04T14:36:37.608Z,2.70
2022-09-04T14:39:16.907Z,2.73
2022-09-04T14:42:12.161Z,2.80
2022-09-04T14:45:03.264Z,3.10
2022-09-04T14:47:47.284Z,2.67
2022-09-04T14:50:17.145Z,2.70
2022-09-04T14:52:54.250Z,3.07
2022-09-04T14:55:25.697Z,3.20
2022-09-04T14:58:19.670Z,3.10
2022-09-04T15:00:59.321Z,3.40
2022-09-04T15:03:31.939Z,2.80
2022-09-04T15:06:03.561Z,3.27
2022-09-04T15:08:36.800Z,2.97
2022-09-04T15:11:09.428Z,2.40
2022-09-04T15:13:52.306Z,2.50
2022-09-04T15:16:28.816Z,2.63
2022-09-04T15:19:00.196Z,2.60
2022-09-04T15:21:33.105Z,2.87
2022-09-04T15:24:26.495Z,2.80
2022-09-04T15:27:05.576Z,3.00
2022-09-04T15:29:47.545Z,2.77
2022-09-04T15:32:42.676Z,2.43
2022-09-04T15:35:21.284Z,2.40
2022-09-04T15:37:50.583Z,2.50
2022-09-04T15:40:24.697Z,2.70
2022-09-04T15:43:11.934Z,2.57
2022-09-04T15:45:50.544Z,2.80
2022-09-04T15:48:28.062Z,2.50
2022-09-04T15:51:09.586Z,2.63
2022-09-04T15:53:37.811Z,3.90
2022-09-04T15:56:09.347Z,2.83
2022-09-04T15:58:51.132Z,2.60
2022-09-04T16:01:24.910Z,2.40
2022-09-04T16:04:07.377Z,2.10
2022-09-04T16:06:36.890Z,2.50
2022-09-04T16:09:32.805Z,2.40
2022-09-04T16:12:11.682Z,2.40
2022-09-04T16:14:52.162Z,2.27
2022-09-04T16:17:40.422Z,1.97
2022-09-04T16:20:12.719Z,2.20
2022-09-04T16:22:47.108Z,2.30
2022-09-04T16:25:31.224Z,2.23
2022-09-04T16:28:11.488Z,2.00
2022-09-04T16:30:59.664Z,2.20
2022-09-04T16:33:34.729Z,2.00
2022-09-04T16:36:06.910Z,2.10
2022-09-04T16:38:57.252Z,1.60
2022-09-04T16:41:37.564Z,1.90
2022-09-04T16:44:07.082Z,2.30
2022-09-04T16:46:35.407Z,2.00
2022-09-04T16:49:19.833Z,1.70
2022-09-04T16:52:19.392Z,1.80
2022-09-04T16:54:49.686Z,1.60
2022-09-04T16:57:21.590Z,1.77
2022-09-04T16:59:49.971Z,2.03
2022-09-04T17:02:37.635Z,1.80
2022-09-04T17:05:18.925Z,1.83
2022-09-04T17:08:05.707Z,1.90
2022-09-04T17:10:41.620Z,1.90
2022-09-04T17:13:19.450Z,2.00
2022-09-04T17:15:58.029Z,1.80
2022-09-04T17:18:26.638Z,1.90
2022-09-04T17:26:16.769Z,1.60
2022-09-04T17:28:55.228Z,2.03
2022-09-04T17:29:11.751Z,1.90
2022-09-04T17:29:40.387Z,1.73
2022-09-04T17:33:52.164Z,1.80
2022-09-04T17:40:39.450Z,2.10
2022-09-04T17:40:56.106Z,1.97
2022-09-04T17:41:36.509Z,1.63
2022-09-04T17:44:50.526Z,1.77
2022-09-04T17:47:29.281Z,2.83
2022-09-04T17:49:56.189Z,1.67
2022-09-04T17:52:44.547Z,1.70
2022-09-04T17:55:13.073Z,2.10
2022-09-04T17:57:42.637Z,1.90
2022-09-04T18:00:20.394Z,1.50
2022-09-04T18:02:54.467Z,1.53
2022-09-04T18:05:29.417Z,1.60
2022-09-04T18:08:22.199Z,1.80
2022-09-04T18:11:08.301Z,2.03
2022-09-04T18:13:52.102Z,1.60
2022-09-04T18:16:39.870Z,1.80
2022-09-04T18:19:45.495Z,1.90
2022-09-04T18:22:26.841Z,1.67
2022-09-04T18:25:17.710Z,1.60
2022-09-04T18:28:06.313Z,1.60
2022-09-04T18:37:10.472Z,1.53
2022-09-04T18:37:20.786Z,1.70
2022-09-04T18:37:26.212Z,1.93
2022-09-04T18:39:44.024Z,1.60
2022-09-04T18:50:21.914Z,1.63
2022-09-04T18:50:37.753Z,1.70
2022-09-04T18:50:39.336Z,2.00
2022-09-04T18:51:29.625Z,1.83
2022-09-04T18:54:03.250Z,1.80
2022-09-04T18:56:34.374Z,1.80
2022-09-04T18:59:08.267Z,1.67
2022-09-04T19:01:49.427Z,1.80
2022-09-04T19:04:19.135Z,1.70
2022-09-04T19:06:53.790Z,1.50
2022-09-04T19:09:55.625Z,1.60
2022-09-04T19:12:35.874Z,1.87
2022-09-04T19:15:48.089Z,1.47
2022-09-04T19:18:22.295Z,1.80
2022-09-04T19:20:53.142Z,1.63
2022-09-04T19:23:28.553Z,1.73
2022-09-04T19:26:00.145Z,1.50
2022-09-04T19:28:53.107Z,1.90
2022-09-04T19:31:40.490Z,1.60
2022-09-04T19:34:18.600Z,2.10
2022-09-04T19:36:52.567Z,1.50
2022-09-04T19:45:57.428Z,2.00
2022-09-04T19:46:01.907Z,2.00
2022-09-04T19:46:18.372Z,1.90
2022-09-04T19:48:18.907Z,1.47
2022-09-04T19:53:19.368Z,1.80
2022-09-04T19:53:49.279Z,1.70
2022-09-04T19:56:30.194Z,1.77
2022-09-04T19:59:03.796Z,1.80
2022-09-04T20:01:39.303Z,1.47
2022-09-04T20:04:11.788Z,1.97
2022-09-04T20:06:50.796Z,1.43
2022-09-04T20:09:29.112Z,1.60
2022-09-04T20:12:01.792Z,1.90
2022-09-04T20:14:34.474Z,2.13
2022-09-04T20:18:04.111Z,1.70
2022-09-04T20:20:56.161Z,2.00
2022-09-04T20:23:34.645Z,2.00
2022-09-04T20:26:48.842Z,1.67
2022-09-04T20:29:20.520Z,1.87
2022-09-04T20:31:58.763Z,1.60
2022-09-04T20:34:31.971Z,1.70
2022-09-04T20:37:20.067Z,1.60
2022-09-04T20:40:01.362Z,1.90
2022-09-04T20:42:37.911Z,1.97
2022-09-04T20:47:05.112Z,1.80
2022-09-04T20:52:43.214Z,1.77
2022-09-04T20:53:05.430Z,1.83
2022-09-04T20:54:11.815Z,1.70
2022-09-04T21:00:21.538Z,1.47
2022-09-04T21:03:10.001Z,1.60
2022-09-04T21:06:13.504Z,1.90
2022-09-04T21:08:52.174Z,1.73
2022-09-04T21:11:39.325Z,1.70
2022-09-04T21:14:13.355Z,1.73
2022-09-04T21:17:35.301Z,1.43
2022-09-04T21:20:27.498Z,1.80
2022-09-04T21:23:06.000Z,2.03
2022-09-04T21:25:51.624Z,1.70
2022-09-04T21:28:46.829Z,1.87
2022-09-04T21:31:25.094Z,1.80
2022-09-04T21:34:24.498Z,1.80
2022-09-04T21:37:00.016Z,1.70
2022-09-04T21:40:00.321Z,2.03
2022-09-04T21:42:37.746Z,1.90
2022-09-04T21:45:22.938Z,1.50
2022-09-04T21:48:16.256Z,1.90
2022-09-04T21:51:37.156Z,1.70
2022-09-04T21:56:42.123Z,1.70
2022-09-04T22:02:27.864Z,1.83
2022-09-04T22:02:39.332Z,1.73
2022-09-04T22:03:52.172Z,1.70
2022-09-04T22:07:18.163Z,1.80
2022-09-04T22:13:28.960Z,1.90
2022-09-04T22:13:46.658Z,1.73
2022-09-04T22:15:57.942Z,1.87
2022-09-04T22:18:43.299Z,1.87
2022-09-04T22:21:55.405Z,1.77
2022-09-04T22:24:41.016Z,1.87
2022-09-04T22:27:29.389Z,1.60
2022-09-04T22:30:22.551Z,1.70
2022-09-04T22:33:10.267Z,1.60
2022-09-04T22:35:55.593Z,1.93
2022-09-04T22:38:37.351Z,1.53
2022-09-04T22:41:17.657Z,1.60
2022-09-04T22:44:10.765Z,1.87
2022-09-04T22:47:19.920Z,1.77
2022-09-04T22:50:06.121Z,1.70
2022-09-04T22:52:57.396Z,1.70
2022-09-04T22:56:09.861Z,1.40
2022-09-04T22:58:53.466Z,1.57
2022-09-04T23:01:28.218Z,1.73
2022-09-04T23:04:21.003Z,1.63
2022-09-04T23:11:25.285Z,1.73
2022-09-04T23:13:51.733Z,1.60
2022-09-04T23:13:53.168Z,1.80
2022-09-04T23:16:10.969Z,1.70
2022-09-04T23:21:59.755Z,2.10
2022-09-04T23:26:47.562Z,1.47
2022-09-04T23:26:54.236Z,1.67
2022-09-04T23:28:31.883Z,1.60
2022-09-04T23:31:27.503Z,1.60
2022-09-04T23:34:26.937Z,1.60
2022-09-04T23:37:02.717Z,1.70
2022-09-04T23:39:32.275Z,1.60
2022-09-04T23:42:37.357Z,1.90
2022-09-04T23:45:09.809Z,1.50
2022-09-04T23:47:49.493Z,1.90
2022-09-04T23:50:25.173Z,1.87
2022-09-04T23:53:14.406Z,1.70
2022-09-04T23:56:01.909Z,1.83
2022-09-04T23:59:32.364Z,1.97
